Meteorología y climatología de Navarra
Datos de la estación - Meteo Navarra

Estación de Aralar GN

Altitud 1344 m.


Datos desde el 07/12/2018 hasta el 08/12/2018 en horario solar
Los datos son PROVISIONALES

Anterior Página 1 de 1 Siguiente Descargar: Formato para Excel 2000 o superior   Formato csv   Formato para OpenOffice Calc
Fecha Temperatura Humedad relativa Radiación global Insolación Precipitación Vel. viento 10 m Vel. viento 10 m Dir. viento 10 m
ºC % W/m² s l/m² m/s km/h º
07/12/2018 0:00 2.2 100 0.0 0 0.0 3.7 13.5 329
07/12/2018 0:10 1.9 100 0.0 0 0.0 4.4 15.7 326
07/12/2018 0:20 1.9 100 0.0 0 0.0 4.1 14.6 326
07/12/2018 0:30 2.0 100 0.0 0 0.0 4.0 14.5 320
07/12/2018 0:40 2.0 100 0.0 0 0.0 4.4 15.9 314
07/12/2018 0:50 2.1 100 0.0 0 0.0 4.5 16.1 306
07/12/2018 1:00 2.1 100 0.0 0 0.0 4.5 16.3 304
07/12/2018 1:10 2.1 100 0.0 0 0.0 4.9 17.8 301
07/12/2018 1:20 2.1 100 0.0 0 0.0 5.1 18.2 302
07/12/2018 1:30 2.1 100 0.0 0 0.0 3.1 11.1 294
07/12/2018 1:40 2.2 100 0.0 0 0.0 2.8 10.2 273
07/12/2018 1:50 2.2 100 0.0 0 0.0 3.5 12.4 266
07/12/2018 2:00 2.2 100 0.0 0 0.0 3.2 11.5 266
07/12/2018 2:10 2.6 95 0.0 0 0.0 3.0 10.6 281
07/12/2018 2:20 3.0 94 0.0 0 0.0 2.8 9.9 276
07/12/2018 2:30 2.3 100 0.0 0 0.0 3.2 11.4 268
07/12/2018 2:40 3.1 85 0.0 0 0.0 3.5 12.7 292
07/12/2018 2:50 3.3 81 0.0 0 0.0 3.4 12.3 290
07/12/2018 3:00 3.6 74 0.0 0 0.0 4.3 15.3 295
07/12/2018 3:10 3.8 69 0.0 0 0.0 5.6 20.1 297
07/12/2018 3:20 4.1 62 0.0 0 0.0 6.9 24.9 298
07/12/2018 3:30 4.0 61 0.0 0 0.0 7.2 26.0 301
07/12/2018 3:40 4.0 61 0.0 0 0.0 7.0 25.2 306
07/12/2018 3:50 4.1 59 0.0 0 0.0 6.3 22.5 307
07/12/2018 4:00 4.5 52 0.0 0 0.0 6.5 23.5 303
07/12/2018 4:10 4.9 48 0.0 0 0.0 7.1 25.6 299
07/12/2018 4:20 4.8 48 0.0 0 0.0 7.9 28.5 301
07/12/2018 4:30 5.1 46 0.0 0 0.0 7.2 26.0 299
07/12/2018 4:40 5.6 41 0.0 0 0.0 7.9 28.5 298
07/12/2018 4:50 5.4 44 0.0 0 0.0 7.6 27.5 298
07/12/2018 5:00 5.3 46 0.0 0 0.0 7.6 27.4 297
07/12/2018 5:10 6.1 37 0.0 0 0.0 8.2 29.5 298
07/12/2018 5:20 6.2 37 0.0 0 0.0 6.7 24.0 296
07/12/2018 5:30 6.2 38 0.0 0 0.0 7.3 26.1 297
07/12/2018 5:40 6.0 39 0.0 0 0.0 6.8 24.6 296
07/12/2018 5:50 6.1 38 0.0 0 0.0 8.2 29.5 297
07/12/2018 6:00 6.2 37 0.0 0 0.0 8.4 30.2 297
07/12/2018 6:10 6.3 39 0.0 0 0.0 7.9 28.3 298
07/12/2018 6:20 6.4 42 0.0 0 0.0 8.6 30.9 300
07/12/2018 6:30 6.4 46 0.0 0 0.0 8.9 32.0 301
07/12/2018 6:40 6.3 53 0.0 0 0.0 8.4 30.3 302
07/12/2018 6:50 6.5 62 0.0 0 0.0 8.3 29.8 305
07/12/2018 7:00 6.5 66 0.0 0 0.0 8.0 28.8 306
07/12/2018 7:10 6.4 65 0.0 0 0.0 7.6 27.2 306
07/12/2018 7:20 6.5 66 0.0 0 0.0 8.0 28.8 307
07/12/2018 7:30 6.7 66 8.6 0 0.0 7.8 28.2 306
07/12/2018 7:40 6.6 65 38.2 496 0.0 7.3 26.4 307
07/12/2018 7:50 6.5 66 64.4 600 0.0 7.2 25.9 305
07/12/2018 8:00 6.4 68 92.6 600 0.0 7.2 25.8 306
07/12/2018 8:10 6.4 69 121.4 600 0.0 6.7 24.3 310
07/12/2018 8:20 6.4 70 150.0 600 0.0 6.5 23.5 312
07/12/2018 8:30 6.4 70 178.9 600 0.0 6.4 22.9 313
07/12/2018 8:40 6.3 71 206.5 600 0.0 5.5 19.9 311
07/12/2018 8:50 6.4 75 234.0 600 0.0 6.4 22.9 309
07/12/2018 9:00 6.7 77 260.9 600 0.0 6.0 21.4 309
07/12/2018 9:10 6.6 77 287.9 600 0.0 5.4 19.4 305
07/12/2018 9:20 6.3 77 314.9 600 0.0 5.2 18.7 303
07/12/2018 9:30 6.2 77 340.5 600 0.0 4.3 15.6 304
07/12/2018 9:40 6.2 79 365.5 600 0.0 5.1 18.3 303
07/12/2018 9:50 6.3 78 388.1 600 0.0 5.1 18.2 308
07/12/2018 10:00 6.4 77 410.9 600 0.0 4.7 17.1 304
07/12/2018 10:10 6.7 75 432.8 600 0.0 4.0 14.5 300
07/12/2018 10:20 6.6 76 452.8 600 0.0 3.4 12.3 299
07/12/2018 10:30 6.9 75 467.5 600 0.0 3.6 12.8 300
07/12/2018 10:40 6.6 76 481.0 600 0.0 4.1 14.6 301
07/12/2018 10:50 6.6 75 492.6 600 0.0 3.6 12.8 297
07/12/2018 11:00 6.7 74 503.0 600 0.0 2.2 8.0 284
07/12/2018 11:10 6.2 75 513.2 600 0.0 2.2 8.0 286
07/12/2018 11:20 6.0 74 521.3 600 0.0 2.4 8.5 259
07/12/2018 11:30 5.3 75 523.3 600 0.0 2.9 10.5 249
07/12/2018 11:40 5.7 75 526.8 600 0.0 2.7 9.6 255
07/12/2018 11:50 5.5 76 524.5 600 0.0 3.9 13.9 254
07/12/2018 12:00 6.5 72 522.9 600 0.0 2.9 10.5 260
07/12/2018 12:10 7.0 68 519.7 600 0.0 2.6 9.5 259
07/12/2018 12:20 7.6 64 515.8 600 0.0 2.2 8.0 266
07/12/2018 12:30 7.7 60 510.4 600 0.0 2.9 10.3 266
07/12/2018 12:40 7.7 62 502.3 600 0.0 2.9 10.5 266
07/12/2018 12:50 7.8 58 514.5 600 0.0 3.5 12.6 282
07/12/2018 13:00 8.0 57 372.6 360 0.0 5.1 18.4 298
07/12/2018 13:10 8.1 58 182.5 84 0.0 5.4 19.4 301
07/12/2018 13:20 8.3 56 173.9 14 0.0 7.0 25.1 305
07/12/2018 13:30 8.5 58 255.0 452 0.0 5.3 19.0 312
07/12/2018 13:40 8.3 67 214.9 348 0.0 7.3 26.4 307
07/12/2018 13:50 8.1 73 269.7 600 0.0 8.2 29.6 307
07/12/2018 14:00 8.0 76 346.4 586 0.0 7.4 26.6 311
07/12/2018 14:10 8.3 75 301.0 548 0.0 4.7 16.8 308
07/12/2018 14:20 8.1 77 120.5 0 0.0 5.4 19.5 315
07/12/2018 14:30 7.5 79 82.9 0 0.0 5.8 21.0 313
07/12/2018 14:40 7.2 86 58.6 0 0.0 7.5 27.1 316
07/12/2018 14:50 6.8 96 56.7 0 0.0 8.7 31.4 313
07/12/2018 15:00 6.6 100 41.5 0 0.0 7.9 28.3 311
07/12/2018 15:10 6.6 100 20.5 0 0.0 7.7 27.6 307
07/12/2018 15:20 6.4 100 14.0 0 0.0 8.5 30.5 308
07/12/2018 15:30 6.1 100 4.5 0 0.0 7.2 25.7 310
07/12/2018 15:40 6.0 100 2.7 0 0.0 9.1 32.9 308
07/12/2018 15:50 5.9 100 1.0 0 0.0 8.4 30.3 309
07/12/2018 16:00 6.1 100 0.0 0 0.1 9.4 33.8 309
07/12/2018 16:10 6.0 100 0.0 0 0.0 9.3 33.6 310
07/12/2018 16:20 5.9 100 0.0 0 0.1 8.3 29.8 315
07/12/2018 16:30 6.0 100 0.0 0 0.0 9.1 32.6 310
07/12/2018 16:40 6.0 100 0.0 0 0.1 7.3 26.1 316
07/12/2018 16:50 5.9 100 0.0 0 0.0 7.0 25.2 313
07/12/2018 17:00 6.0 100 0.0 0 0.2 5.8 20.8 311
07/12/2018 17:10 5.8 100 0.0 0 0.3 4.2 15.0 308
07/12/2018 17:20 5.8 100 0.0 0 0.3 4.2 14.9 311
07/12/2018 17:30 5.5 100 0.0 0 0.2 5.4 19.3 316
07/12/2018 17:40 5.2 100 0.0 0 0.2 8.5 30.5 308
07/12/2018 17:50 4.9 100 0.0 0 0.0 9.6 34.5 312
07/12/2018 18:00 4.8 100 0.0 0 0.0 9.5 34.1 311
07/12/2018 18:10 4.7 100 0.0 0 0.1 9.8 35.3 316
07/12/2018 18:20 4.8 100 0.0 0 0.1 9.4 33.9 315
07/12/2018 18:30 4.7 100 0.0 0 0.0 7.7 27.7 316
07/12/2018 18:40 4.7 100 0.0 0 0.0 8.7 31.1 312
07/12/2018 18:50 4.6 100 0.0 0 0.1 8.5 30.7 324
07/12/2018 19:00 4.4 100 0.0 0 0.0 7.9 28.5 319
07/12/2018 19:10 4.1 100 0.0 0 0.1 7.5 27.1 317
07/12/2018 19:20 3.9 100 0.0 0 0.1 7.7 27.8 312
07/12/2018 19:30 3.9 100 0.0 0 0.1 7.1 25.4 316
07/12/2018 19:40 4.0 100 0.0 0 0.1 6.6 23.8 314
07/12/2018 19:50 3.9 100 0.0 0 0.3 4.8 17.4 314
07/12/2018 20:00 3.8 100 0.0 0 0.1 5.3 18.9 322
07/12/2018 20:10 3.8 100 0.0 0 0.0 6.6 23.6 327
07/12/2018 20:20 3.7 100 0.0 0 0.2 5.7 20.6 328
07/12/2018 20:30 3.6 100 0.0 0 0.1 6.1 21.9 326
07/12/2018 20:40 3.1 100 0.0 0 0.0 10.6 38.3 325
07/12/2018 20:50 2.8 100 0.0 0 0.1 10.7 38.4 327
07/12/2018 21:00 2.8 100 0.0 0 0.1 10.0 36.0 322
07/12/2018 21:10 2.8 100 0.0 0 0.0 10.5 37.7 329
07/12/2018 21:20 2.6 100 0.0 0 0.1 9.7 34.7 328
07/12/2018 21:30 2.5 100 0.0 0 0.0 10.2 36.8 328
07/12/2018 21:40 2.4 100 0.0 0 0.1 9.1 32.7 327
07/12/2018 21:50 2.4 100 0.0 0 0.0 8.1 29.3 327
07/12/2018 22:00 2.5 100 0.0 0 0.2 6.3 22.8 322
07/12/2018 22:10 2.5 100 0.0 0 0.1 6.2 22.4 321
07/12/2018 22:20 2.4 100 0.0 0 0.1 8.7 31.2 315
07/12/2018 22:30 2.3 100 0.0 0 0.0 7.0 25.2 326
07/12/2018 22:40 2.3 100 0.0 0 0.0 8.1 29.1 327
07/12/2018 22:50 2.3 100 0.0 0 0.0 7.6 27.5 325
07/12/2018 23:00 2.1 100 0.0 0 0.0 9.3 33.5 321
07/12/2018 23:10 2.0 100 0.0 0 0.0 8.8 31.6 319
07/12/2018 23:20 2.1 100 0.0 0 0.0 8.5 30.5 322
07/12/2018 23:30 2.1 100 0.0 0 0.0 7.3 26.3 325
07/12/2018 23:40 2.0 100 0.0 0 0.0 7.4 26.8 316
07/12/2018 23:50 2.0 100 0.0 0 0.0 8.1 29.0 317
Anterior Página 1 de 1 Siguiente
Los datos de precipitación registrados en estaciones que están en cumbres son inferiores a lo real, como consecuencia del efecto del viento y de la nieve.


NOTA: Tipo de datos según el color:
   - Valores diarios o 10 minutos correctos
   - Valores diarios calculados a partir de un número de datos 10 minutos menor que 144 y mayor que 120, o de un número de datos semihorarios menor que 48 y mayor que 40 (caso de las estaciones de Riegos de Navarra y del MARM)
   - Valores diez minutos estimados


Contacto        Enlaces        Aviso legal